x

North Nomad (46184) Wave Buoy

2:00pm - Thu 31st Jul 2014 All times are AKDT. -8 hours from GMT.

  • Sig Wave height 3.9ft
  • Peak Period 7s
  • Wind
    16mph, 18mph gusts
  • Sea Temp 59°f
  • Air Temp 59°f
  • Sea Pressure 1025mb
  • North Nomad
  • North Nomad

More Historic Weather Station data

Upgrade to MSW Pro to gain access to the past 30 days of data for over 8000 Wavebouys and Weather Stations around the globe.

Join Pro

Comparision Forecast

View Surf forecast
   
Thu 07/31 2:00pm 4ft 7s 16 18 mph 1025mb 59f 59f
1:00pm 4.5ft 6s 13 16 mph 1025.1mb 59f 60f
12:00pm 4.5ft 6s 13 16 mph 1024.9mb 59f 59f
11:00am 4.5ft 6s 16 18 mph 1024.7mb 59f 59f
10:00am 4.5ft 6s 16 18 mph 1024.4mb 59f 59f
9:00am 4.5ft  -  16 20 mph 1024.2mb 59f 59f
8:00am 4.5ft 6s 13 18 mph 1024.1mb 59f 59f
7:00am 4.5ft 7s 16 18 mph 1024mb 59f 59f
6:00am 4.5ft 6s 16 18 mph 1023.7mb 59f 59f
5:00am 4.5ft 7s 16 18 mph 1023.5mb 59f 59f
4:00am 4.5ft 6s 16 18 mph 1023.3mb 59f 59f
3:00am 5ft 7s 13 18 mph 1023.3mb 59f 59f
2:00am 4.5ft 7s 13 18 mph 1023.5mb 59f 59f
1:00am 4.5ft 7s 13 18 mph 1023.7mb 59f 59f
12:00am 4.5ft 6s 13 16 mph 1023.5mb 59f 59f
Wed 07/30 11:00pm 4.5ft 7s 13 16 mph 1023.2mb 59f 59f
10:00pm 4.5ft 7s 13 16 mph 1023.1mb 59f 59f
9:00pm 4.5ft 6s 16 18 mph 1022.7mb 59f 59f
8:00pm 4.5ft 6s 13 16 mph 1022.5mb 59f 59f
7:00pm 4.5ft 6s 16 18 mph 1022.5mb 59f 59f
6:00pm 4.5ft 6s 13 18 mph 1022.2mb 59f 59f
5:00pm 4.5ft 5s 16 18 mph 1022mb 59f 59f
4:00pm 4.5ft 6s 16 18 mph 1021.8mb 59f 59f
3:00pm 4.5ft  -  16 18 mph 1021.6mb 59f 59f
2:00pm 4ft 5s 16 20 mph 1021.4mb 59f 59f
1:00pm 4ft 6s 18 20 mph 1021.1mb 59f 59f
12:00pm 4ft 6s 16 20 mph 1020.9mb 59f 59f
11:00am 4.5ft 6s 18 20 mph 1020.6mb 59f 59f
10:00am 4ft 6s 16 18 mph 1020.1mb 59f 59f
9:00am 4ft 6s 11 13 mph 1019.8mb 59f 58f
8:00am 4ft 7s 13 16 mph 1019.6mb 59f 56f
7:00am 4.5ft 6s 11 13 mph 1019.2mb 59f 57f
6:00am 4.5ft 6s 16 18 mph 1018.8mb 59f 58f
5:00am 4.5ft 6s 16 18 mph 1018.6mb 59f 58f
4:00am 4ft 6s 13 18 mph 1018.4mb 59f 58f
3:00am 3.5ft 6s 16 18 mph 1018.4mb 59f 58f
2:00am 3.5ft 5s 16 18 mph 1018.3mb 59f 58f
1:00am 3.5ft 5s 13 18 mph 1018.4mb 59f 58f
12:00am 3.5ft 14s 13 16 mph 1018.4mb 59f 58f
Tue 07/29 11:00pm 3.5ft 5s 13 16 mph 1018.3mb 59f 58f
10:00pm 3.5ft 15s 16 18 mph 1018.2mb 59f 58f
9:00pm 3.5ft 5s 13 18 mph 1018.1mb 59f 58f
8:00pm 3.5ft 14s 13 16 mph 1017.9mb 59f 58f
7:00pm 3.5ft 14s 13
mph
1017.8mb 59f 58f
6:00pm 3.5ft 14s 13 16 mph 1017.8mb 59f 59f
5:00pm 3.5ft 5s 13 16 mph 1017.3mb 59f 59f
4:00pm 3.5ft  -  13 18 mph 1016.9mb 59f 59f
3:00pm 3ft  -  13 18 mph 1016.6mb 59f 59f
2:00pm 3ft 15s 13 16 mph 1016.3mb 59f 59f
1:00pm 3ft 5s 13 16 mph 1016.1mb 59f 59f
12:00pm 3ft 16s 11 13 mph 1015.9mb 59f 58f
11:00am 2.5ft 16s 11 13 mph 1015.7mb 59f 58f
10:00am 2.5ft 15s 9 11 mph 1015.4mb 59f 58f
9:00am 2.5ft 5s 7 9 mph 1015.3mb 58f 58f
8:00am 2.5ft 15s 7 9 mph 1015mb 58f 59f
7:00am 2.5ft 16s 4 7 mph 1014.8mb 58f 56f
6:00am 2.5ft 5s 7 9 mph 1014.6mb 58f 58f
5:00am 2.5ft 16s 7 9 mph 1014.3mb 58f 58f
4:00am 2.5ft 7s 7 9 mph 1014.3mb 58f 58f
3:00am 2.5ft 15s 7 9 mph 1014.2mb 58f 58f
2:00am 2.5ft 15s 7 9 mph 1014.2mb 58f 58f
1:00am 2.5ft 16s 9 11 mph 1014.4mb 58f 58f
12:00am 2.5ft 16s 9 11 mph 1014.6mb 58f 58f
Mon 07/28 11:00pm 2.5ft 15s 11 13 mph 1014.7mb 58f 58f
10:00pm 2.5ft 15s 13
mph
1014.8mb 59f 58f
9:00pm 2.5ft 16s 11 13 mph 1014.8mb 59f 58f
8:00pm 2.5ft 17s 11 13 mph 1014.7mb 59f 58f
7:00pm 2.5ft 14s 13 16 mph 1014.6mb 59f 58f
6:00pm 3ft 14s 13 16 mph 1014.7mb 59f 58f
5:00pm 3.5ft  -  13 16 mph 1014.7mb 59f 58f
4:00pm 3ft 16s 13 16 mph 1014.6mb 59f 58f
3:00pm 3.5ft  -  13 16 mph 1014.6mb 59f 58f
2:00pm 3.5ft 7s 13 16 mph 1014.5mb 59f 58f
1:00pm 3.5ft 7s 16 18 mph 1014.3mb 58f 58f
12:00pm 3.5ft 16s 13 18 mph 1014.6mb 58f 58f
11:00am 3.5ft 8s 13 16 mph 1014.6mb 58f 58f
10:00am 3.5ft 4s 16 18 mph 1014.4mb 58f 58f
9:00am 3.5ft 7s 16 18 mph 1014.4mb 58f 58f
8:00am 3.5ft 7s 13 18 mph 1014.3mb 58f 57f
7:00am 3.5ft 8s 16 18 mph 1014.1mb 58f 57f
6:00am 3.5ft 4s 16 20 mph 1014.1mb 58f 57f
5:00am 3.5ft  -  13 18 mph 1014mb 58f 56f
4:00am 3.5ft 17s 16 18 mph 1013.8mb 58f 57f
3:00am 3.5ft 8s 16 18 mph 1013.8mb 58f 56f
2:00am 3.5ft  -  13 18 mph 1013.6mb 58f 57f
1:00am 3.5ft  -  16 18 mph 1013.7mb 58f 57f